sensor_id;sensor_type;location;lat;lon;timestamp;temperature;humidity
53962;DHT22;39868;53.398;6.564;2023-02-04T01:10:03;9.50;81.20
53962;DHT22;39868;53.398;6.564;2023-02-04T01:25:28;9.50;81.30
53962;DHT22;39868;53.398;6.564;2023-02-04T01:36:47;9.50;81.20
53962;DHT22;39868;53.398;6.564;2023-02-04T01:56:47;9.70;81.50
53962;DHT22;39868;53.398;6.564;2023-02-04T03:17:51;9.40;80.50
53962;DHT22;39868;53.398;6.564;2023-02-04T03:47:47;9.30;80.30
53962;DHT22;39868;53.398;6.564;2023-02-04T04:25:13;9.10;80.20
53962;DHT22;39868;53.398;6.564;2023-02-04T05:07:41;9.00;80.10
53962;DHT22;39868;53.398;6.564;2023-02-04T06:41:51;8.60;80.00
53962;DHT22;39868;53.398;6.564;2023-02-04T08:46:31;8.30;79.60
53962;DHT22;39868;53.398;6.564;2023-02-04T08:57:50;8.50;79.60
53962;DHT22;39868;53.398;6.564;2023-02-04T09:05:01;8.70;79.60
53962;DHT22;39868;53.398;6.564;2023-02-04T09:37:02;9.40;79.50
53962;DHT22;39868;53.398;6.564;2023-02-04T09:48:10;9.50;78.90
53962;DHT22;39868;53.398;6.564;2023-02-04T09:58:33;9.80;78.60
53962;DHT22;39868;53.398;6.564;2023-02-04T10:09:39;10.00;78.30
53962;DHT22;39868;53.398;6.564;2023-02-04T10:12:07;10.00;78.30
53962;DHT22;39868;53.398;6.564;2023-02-04T10:14:34;10.10;78.20
53962;DHT22;39868;53.398;6.564;2023-02-04T10:17:01;10.10;78.00
53962;DHT22;39868;53.398;6.564;2023-02-04T10:19:29;10.20;77.90
53962;DHT22;39868;53.398;6.564;2023-02-04T10:21:57;10.20;77.80
53962;DHT22;39868;53.398;6.564;2023-02-04T10:24:26;10.30;77.70
53962;DHT22;39868;53.398;6.564;2023-02-04T10:27:04;10.30;77.50
53962;DHT22;39868;53.398;6.564;2023-02-04T10:29:32;10.40;77.40
53962;DHT22;39868;53.398;6.564;2023-02-04T10:31:59;10.40;77.30
53962;DHT22;39868;53.398;6.564;2023-02-04T10:34:36;10.50;77.20
53962;DHT22;39868;53.398;6.564;2023-02-04T10:37:19;10.50;76.90
53962;DHT22;39868;53.398;6.564;2023-02-04T10:39:47;10.60;77.10
53962;DHT22;39868;53.398;6.564;2023-02-04T10:42:24;10.70;77.20
53962;DHT22;39868;53.398;6.564;2023-02-04T10:44:52;10.80;77.20
53962;DHT22;39868;53.398;6.564;2023-02-04T10:47:22;10.90;77.00
53962;DHT22;39868;53.398;6.564;2023-02-04T10:50:06;11.00;76.60
53962;DHT22;39868;53.398;6.564;2023-02-04T10:52:43;11.10;76.50
53962;DHT22;39868;53.398;6.564;2023-02-04T10:55:21;11.10;76.20
53962;DHT22;39868;53.398;6.564;2023-02-04T10:57:51;11.20;76.10
53962;DHT22;39868;53.398;6.564;2023-02-04T11:00:21;11.20;76.00
53962;DHT22;39868;53.398;6.564;2023-02-04T11:03:02;11.20;76.10
53962;DHT22;39868;53.398;6.564;2023-02-04T11:05:33;11.20;75.70
53962;DHT22;39868;53.398;6.564;2023-02-04T11:08:02;11.20;75.70
53962;DHT22;39868;53.398;6.564;2023-02-04T11:10:31;11.20;75.30
53962;DHT22;39868;53.398;6.564;2023-02-04T11:13:04;11.20;75.00
53962;DHT22;39868;53.398;6.564;2023-02-04T11:18:24;11.20;74.80
53962;DHT22;39868;53.398;6.564;2023-02-04T11:20:58;11.20;74.90
53962;DHT22;39868;53.398;6.564;2023-02-04T11:26:15;11.20;75.00
53962;DHT22;39868;53.398;6.564;2023-02-04T11:28:54;11.20;74.90
53962;DHT22;39868;53.398;6.564;2023-02-04T11:34:00;11.20;75.00
53962;DHT22;39868;53.398;6.564;2023-02-04T11:36:29;11.20;75.00
53962;DHT22;39868;53.398;6.564;2023-02-04T11:38:56;11.20;75.00
53962;DHT22;39868;53.398;6.564;2023-02-04T11:41:33;11.30;74.90
53962;DHT22;39868;53.398;6.564;2023-02-04T11:44:00;11.30;74.80
53962;DHT22;39868;53.398;6.564;2023-02-04T11:46:28;11.30;74.60
53962;DHT22;39868;53.398;6.564;2023-02-04T11:48:57;11.30;74.70
53962;DHT22;39868;53.398;6.564;2023-02-04T11:51:30;11.40;74.80
53962;DHT22;39868;53.398;6.564;2023-02-04T11:53:58;11.40;74.70
53962;DHT22;39868;53.398;6.564;2023-02-04T11:56:28;11.50;74.60
53962;DHT22;39868;53.398;6.564;2023-02-04T11:58:57;11.50;74.70
53962;DHT22;39868;53.398;6.564;2023-02-04T12:01:30;11.60;74.70
53962;DHT22;39868;53.398;6.564;2023-02-04T12:04:00;11.70;74.60
53962;DHT22;39868;53.398;6.564;2023-02-04T12:06:31;11.80;74.40
53962;DHT22;39868;53.398;6.564;2023-02-04T12:09:23;11.80;74.10
53962;DHT22;39868;53.398;6.564;2023-02-04T12:11:56;11.90;74.20
53962;DHT22;39868;53.398;6.564;2023-02-04T12:14:38;12.10;74.30
53962;DHT22;39868;53.398;6.564;2023-02-04T12:17:18;12.20;74.60
53962;DHT22;39868;53.398;6.564;2023-02-04T12:19:46;12.30;73.60
53962;DHT22;39868;53.398;6.564;2023-02-04T12:22:13;12.40;73.70
53962;DHT22;39868;53.398;6.564;2023-02-04T12:24:41;12.40;74.10
53962;DHT22;39868;53.398;6.564;2023-02-04T12:27:09;12.50;73.40
53962;DHT22;39868;53.398;6.564;2023-02-04T12:29:37;12.60;72.70
53962;DHT22;39868;53.398;6.564;2023-02-04T12:32:04;12.60;72.40
53962;DHT22;39868;53.398;6.564;2023-02-04T12:34:32;12.60;72.10
53962;DHT22;39868;53.398;6.564;2023-02-04T12:36:59;12.70;72.30
53962;DHT22;39868;53.398;6.564;2023-02-04T12:39:27;12.60;71.90
53962;DHT22;39868;53.398;6.564;2023-02-04T12:41:54;12.60;71.80
53962;DHT22;39868;53.398;6.564;2023-02-04T12:44:22;12.70;71.60
53962;DHT22;39868;53.398;6.564;2023-02-04T12:46:49;12.70;71.80
53962;DHT22;39868;53.398;6.564;2023-02-04T12:49:17;12.60;71.90
53962;DHT22;39868;53.398;6.564;2023-02-04T12:51:44;12.70;72.00
53962;DHT22;39868;53.398;6.564;2023-02-04T12:54:12;12.70;71.60
53962;DHT22;39868;53.398;6.564;2023-02-04T12:56:39;12.70;71.50
53962;DHT22;39868;53.398;6.564;2023-02-04T12:59:06;12.70;71.60
53962;DHT22;39868;53.398;6.564;2023-02-04T13:01:34;12.70;71.80
53962;DHT22;39868;53.398;6.564;2023-02-04T13:04:01;12.70;71.50
53962;DHT22;39868;53.398;6.564;2023-02-04T13:06:28;12.70;71.20
53962;DHT22;39868;53.398;6.564;2023-02-04T13:08:56;12.70;71.50
53962;DHT22;39868;53.398;6.564;2023-02-04T13:11:24;12.70;71.60
53962;DHT22;39868;53.398;6.564;2023-02-04T13:13:51;12.70;71.40
53962;DHT22;39868;53.398;6.564;2023-02-04T13:16:18;12.70;71.30
53962;DHT22;39868;53.398;6.564;2023-02-04T13:18:49;12.70;71.00
53962;DHT22;39868;53.398;6.564;2023-02-04T13:21:16;12.80;71.00
53962;DHT22;39868;53.398;6.564;2023-02-04T13:23:44;12.80;70.80
53962;DHT22;39868;53.398;6.564;2023-02-04T13:26:11;12.70;70.10
53962;DHT22;39868;53.398;6.564;2023-02-04T13:28:38;12.70;70.10
53962;DHT22;39868;53.398;6.564;2023-02-04T13:31:06;12.70;70.00
53962;DHT22;39868;53.398;6.564;2023-02-04T13:33:33;12.70;69.50
53962;DHT22;39868;53.398;6.564;2023-02-04T13:36:00;12.70;69.60
53962;DHT22;39868;53.398;6.564;2023-02-04T13:38:28;12.70;69.80
53962;DHT22;39868;53.398;6.564;2023-02-04T13:40:55;12.60;69.80
53962;DHT22;39868;53.398;6.564;2023-02-04T13:43:23;12.60;70.20
53962;DHT22;39868;53.398;6.564;2023-02-04T13:45:50;12.60;70.20
53962;DHT22;39868;53.398;6.564;2023-02-04T13:48:17;12.60;70.00
53962;DHT22;39868;53.398;6.564;2023-02-04T13:50:45;12.60;69.80
53962;DHT22;39868;53.398;6.564;2023-02-04T13:53:12;12.60;69.70
53962;DHT22;39868;53.398;6.564;2023-02-04T13:55:39;12.60;69.60
53962;DHT22;39868;53.398;6.564;2023-02-04T13:58:07;12.60;69.60
53962;DHT22;39868;53.398;6.564;2023-02-04T14:00:34;12.60;69.10
53962;DHT22;39868;53.398;6.564;2023-02-04T14:03:02;12.60;69.20
53962;DHT22;39868;53.398;6.564;2023-02-04T14:05:29;12.60;69.50
53962;DHT22;39868;53.398;6.564;2023-02-04T14:07:56;12.50;69.30
53962;DHT22;39868;53.398;6.564;2023-02-04T14:10:23;12.60;69.50
53962;DHT22;39868;53.398;6.564;2023-02-04T14:12:52;12.60;69.60
53962;DHT22;39868;53.398;6.564;2023-02-04T14:15:20;12.70;69.50
53962;DHT22;39868;53.398;6.564;2023-02-04T14:17:47;12.70;69.60
53962;DHT22;39868;53.398;6.564;2023-02-04T14:20:15;12.70;69.80
53962;DHT22;39868;53.398;6.564;2023-02-04T14:22:42;12.80;69.70
53962;DHT22;39868;53.398;6.564;2023-02-04T14:25:09;12.80;69.80
53962;DHT22;39868;53.398;6.564;2023-02-04T14:27:37;12.90;69.90
53962;DHT22;39868;53.398;6.564;2023-02-04T14:30:27;12.90;69.40
53962;DHT22;39868;53.398;6.564;2023-02-04T14:32:56;13.00;69.90
53962;DHT22;39868;53.398;6.564;2023-02-04T14:35:24;13.00;69.60
53962;DHT22;39868;53.398;6.564;2023-02-04T14:37:52;13.10;69.40
53962;DHT22;39868;53.398;6.564;2023-02-04T14:40:20;13.20;69.30
53962;DHT22;39868;53.398;6.564;2023-02-04T14:42:47;13.20;69.00
53962;DHT22;39868;53.398;6.564;2023-02-04T14:45:14;13.20;69.00
53962;DHT22;39868;53.398;6.564;2023-02-04T14:47:42;13.20;68.80
53962;DHT22;39868;53.398;6.564;2023-02-04T14:50:15;13.30;68.80
53962;DHT22;39868;53.398;6.564;2023-02-04T14:52:42;13.30;68.50
53962;DHT22;39868;53.398;6.564;2023-02-04T14:55:09;13.30;70.00
53962;DHT22;39868;53.398;6.564;2023-02-04T14:57:38;13.30;69.00
53962;DHT22;39868;53.398;6.564;2023-02-04T15:00:06;13.20;68.40
53962;DHT22;39868;53.398;6.564;2023-02-04T15:02:34;13.20;68.30
53962;DHT22;39868;53.398;6.564;2023-02-04T15:05:02;13.10;68.30
53962;DHT22;39868;53.398;6.564;2023-02-04T15:07:29;13.10;68.20
53962;DHT22;39868;53.398;6.564;2023-02-04T15:09:57;13.10;68.20
53962;DHT22;39868;53.398;6.564;2023-02-04T15:12:24;13.00;68.10
53962;DHT22;39868;53.398;6.564;2023-02-04T15:14:51;12.90;67.90
53962;DHT22;39868;53.398;6.564;2023-02-04T15:17:19;12.80;67.90
53962;DHT22;39868;53.398;6.564;2023-02-04T15:19:46;12.70;67.90
53962;DHT22;39868;53.398;6.564;2023-02-04T15:22:14;12.60;67.90
53962;DHT22;39868;53.398;6.564;2023-02-04T15:24:41;12.50;67.90
53962;DHT22;39868;53.398;6.564;2023-02-04T15:27:09;12.40;68.00
53962;DHT22;39868;53.398;6.564;2023-02-04T15:29:36;12.30;68.00
53962;DHT22;39868;53.398;6.564;2023-02-04T15:32:04;12.10;68.00
53962;DHT22;39868;53.398;6.564;2023-02-04T15:34:31;12.00;68.00
53962;DHT22;39868;53.398;6.564;2023-02-04T15:36:59;11.80;68.00
53962;DHT22;39868;53.398;6.564;2023-02-04T15:39:26;11.70;68.20
53962;DHT22;39868;53.398;6.564;2023-02-04T15:41:53;11.60;68.30
53962;DHT22;39868;53.398;6.564;2023-02-04T15:44:21;11.40;68.30
53962;DHT22;39868;53.398;6.564;2023-02-04T15:46:48;11.30;68.40
53962;DHT22;39868;53.398;6.564;2023-02-04T15:49:15;11.20;68.50
53962;DHT22;39868;53.398;6.564;2023-02-04T15:51:43;11.00;68.60
53962;DHT22;39868;53.398;6.564;2023-02-04T15:54:10;10.90;68.70
53962;DHT22;39868;53.398;6.564;2023-02-04T15:56:37;10.80;68.90
53962;DHT22;39868;53.398;6.564;2023-02-04T15:59:05;10.70;69.00
53962;DHT22;39868;53.398;6.564;2023-02-04T16:01:34;10.50;69.10
53962;DHT22;39868;53.398;6.564;2023-02-04T16:04:01;10.40;69.20
53962;DHT22;39868;53.398;6.564;2023-02-04T16:06:28;10.30;69.30
53962;DHT22;39868;53.398;6.564;2023-02-04T16:08:56;10.20;69.40
53962;DHT22;39868;53.398;6.564;2023-02-04T16:11:23;10.10;69.50
53962;DHT22;39868;53.398;6.564;2023-02-04T16:13:50;10.00;69.60
53962;DHT22;39868;53.398;6.564;2023-02-04T16:16:18;9.90;69.70
53962;DHT22;39868;53.398;6.564;2023-02-04T16:18:46;9.80;69.80
53962;DHT22;39868;53.398;6.564;2023-02-04T16:21:13;9.80;70.00
53962;DHT22;39868;53.398;6.564;2023-02-04T16:23:41;9.60;70.00
53962;DHT22;39868;53.398;6.564;2023-02-04T16:26:09;9.60;70.10
53962;DHT22;39868;53.398;6.564;2023-02-04T16:28:36;9.50;70.20
53962;DHT22;39868;53.398;6.564;2023-02-04T16:31:04;9.40;70.30
53962;DHT22;39868;53.398;6.564;2023-02-04T16:33:35;9.30;70.30
53962;DHT22;39868;53.398;6.564;2023-02-04T16:36:07;9.20;70.40
53962;DHT22;39868;53.398;6.564;2023-02-04T16:38:39;9.10;70.50
53962;DHT22;39868;53.398;6.564;2023-02-04T16:41:09;9.10;70.60
53962;DHT22;39868;53.398;6.564;2023-02-04T16:43:37;9.00;70.70
53962;DHT22;39868;53.398;6.564;2023-02-04T16:46:05;8.90;70.80
53962;DHT22;39868;53.398;6.564;2023-02-04T16:48:32;8.80;70.80
53962;DHT22;39868;53.398;6.564;2023-02-04T16:51:02;8.80;70.90
53962;DHT22;39868;53.398;6.564;2023-02-04T16:53:30;8.70;71.00
53962;DHT22;39868;53.398;6.564;2023-02-04T16:55:57;8.60;71.10
53962;DHT22;39868;53.398;6.564;2023-02-04T16:58:24;8.60;71.20
53962;DHT22;39868;53.398;6.564;2023-02-04T17:00:52;8.50;71.20
53962;DHT22;39868;53.398;6.564;2023-02-04T17:03:20;8.50;71.40
53962;DHT22;39868;53.398;6.564;2023-02-04T17:05:47;8.40;71.40
53962;DHT22;39868;53.398;6.564;2023-02-04T17:08:14;8.40;71.60
53962;DHT22;39868;53.398;6.564;2023-02-04T17:10:43;8.30;71.60
53962;DHT22;39868;53.398;6.564;2023-02-04T17:13:29;8.30;71.70
53962;DHT22;39868;53.398;6.564;2023-02-04T17:15:56;8.20;71.70
53962;DHT22;39868;53.398;6.564;2023-02-04T17:18:28;8.20;71.80
53962;DHT22;39868;53.398;6.564;2023-02-04T17:20:56;8.20;71.80
53962;DHT22;39868;53.398;6.564;2023-02-04T17:23:25;8.10;71.90
53962;DHT22;39868;53.398;6.564;2023-02-04T17:25:53;8.10;71.90
53962;DHT22;39868;53.398;6.564;2023-02-04T17:28:20;8.00;71.90
53962;DHT22;39868;53.398;6.564;2023-02-04T17:30:48;8.00;72.00
53962;DHT22;39868;53.398;6.564;2023-02-04T17:33:15;8.00;72.20
53962;DHT22;39868;53.398;6.564;2023-02-04T17:35:42;8.00;72.30
53962;DHT22;39868;53.398;6.564;2023-02-04T17:38:10;7.90;72.30
53962;DHT22;39868;53.398;6.564;2023-02-04T17:40:37;7.90;72.40
53962;DHT22;39868;53.398;6.564;2023-02-04T17:43:04;7.80;72.40
53962;DHT22;39868;53.398;6.564;2023-02-04T17:45:33;7.80;72.50
53962;DHT22;39868;53.398;6.564;2023-02-04T17:48:01;7.80;72.60
53962;DHT22;39868;53.398;6.564;2023-02-04T17:50:29;7.80;72.60
53962;DHT22;39868;53.398;6.564;2023-02-04T17:52:56;7.80;72.70
53962;DHT22;39868;53.398;6.564;2023-02-04T17:55:26;7.70;72.70
53962;DHT22;39868;53.398;6.564;2023-02-04T17:57:55;7.80;72.90
53962;DHT22;39868;53.398;6.564;2023-02-04T18:00:24;7.70;72.90
53962;DHT22;39868;53.398;6.564;2023-02-04T18:02:54;7.70;73.50
53962;DHT22;39868;53.398;6.564;2023-02-04T18:05:24;7.70;72.90
53962;DHT22;39868;53.398;6.564;2023-02-04T18:07:59;7.70;73.00
53962;DHT22;39868;53.398;6.564;2023-02-04T18:10:35;7.60;73.00
53962;DHT22;39868;53.398;6.564;2023-02-04T18:13:22;7.60;73.00
53962;DHT22;39868;53.398;6.564;2023-02-04T18:15:59;7.60;73.00
53962;DHT22;39868;53.398;6.564;2023-02-04T18:18:30;7.50;73.00
53962;DHT22;39868;53.398;6.564;2023-02-04T18:21:29;7.50;73.10
53962;DHT22;39868;53.398;6.564;2023-02-04T18:24:25;7.40;73.10
53962;DHT22;39868;53.398;6.564;2023-02-04T18:27:00;7.40;73.30
53962;DHT22;39868;53.398;6.564;2023-02-04T18:29:34;7.40;73.40
53962;DHT22;39868;53.398;6.564;2023-02-04T18:32:36;7.40;73.50
53962;DHT22;39868;53.398;6.564;2023-02-04T18:37:46;7.40;73.80
53962;DHT22;39868;53.398;6.564;2023-02-04T18:40:28;7.40;73.90
53962;DHT22;39868;53.398;6.564;2023-02-04T18:45:41;7.40;74.00
53962;DHT22;39868;53.398;6.564;2023-02-04T18:50:49;7.40;74.00
53962;DHT22;39868;53.398;6.564;2023-02-04T18:53:18;7.50;74.00
53962;DHT22;39868;53.398;6.564;2023-02-04T18:55:49;7.50;74.00
53962;DHT22;39868;53.398;6.564;2023-02-04T19:00:52;7.50;74.00
53962;DHT22;39868;53.398;6.564;2023-02-04T19:03:31;7.50;74.00
53962;DHT22;39868;53.398;6.564;2023-02-04T19:06:01;7.50;74.00
53962;DHT22;39868;53.398;6.564;2023-02-04T19:08:39;7.60;74.00
53962;DHT22;39868;53.398;6.564;2023-02-04T19:16:44;7.60;74.00
53962;DHT22;39868;53.398;6.564;2023-02-04T19:19:33;7.60;74.00
53962;DHT22;39868;53.398;6.564;2023-02-04T19:22:28;7.60;74.00
53962;DHT22;39868;53.398;6.564;2023-02-04T19:27:54;7.70;74.00
53962;DHT22;39868;53.398;6.564;2023-02-04T19:32:57;7.60;73.90
53962;DHT22;39868;53.398;6.564;2023-02-04T19:35:34;7.60;73.90
53962;DHT22;39868;53.398;6.564;2023-02-04T19:40:53;7.60;73.90
53962;DHT22;39868;53.398;6.564;2023-02-04T19:43:25;7.60;73.90
53962;DHT22;39868;53.398;6.564;2023-02-04T19:45:55;7.70;73.90
53962;DHT22;39868;53.398;6.564;2023-02-04T19:48:32;7.70;73.90
53962;DHT22;39868;53.398;6.564;2023-02-04T19:51:25;7.70;73.90
53962;DHT22;39868;53.398;6.564;2023-02-04T19:53:59;7.60;73.80
53962;DHT22;39868;53.398;6.564;2023-02-04T19:56:35;7.70;73.80
53962;DHT22;39868;53.398;6.564;2023-02-04T19:59:28;7.60;73.70
53962;DHT22;39868;53.398;6.564;2023-02-04T20:04:50;7.60;73.70
53962;DHT22;39868;53.398;6.564;2023-02-04T20:07:24;7.50;73.60
53962;DHT22;39868;53.398;6.564;2023-02-04T20:10:11;7.50;73.70
53962;DHT22;39868;53.398;6.564;2023-02-04T20:12:43;7.50;73.70
53962;DHT22;39868;53.398;6.564;2023-02-04T20:15:16;7.50;73.70
53962;DHT22;39868;53.398;6.564;2023-02-04T20:17:45;7.40;73.80
53962;DHT22;39868;53.398;6.564;2023-02-04T20:20:34;7.40;73.80
53962;DHT22;39868;53.398;6.564;2023-02-04T20:23:27;7.40;73.80
53962;DHT22;39868;53.398;6.564;2023-02-04T20:25:55;7.40;73.80
53962;DHT22;39868;53.398;6.564;2023-02-04T20:28:38;7.40;73.80
53962;DHT22;39868;53.398;6.564;2023-02-04T20:31:22;7.30;73.90
53962;DHT22;39868;53.398;6.564;2023-02-04T20:33:54;7.30;73.80
53962;DHT22;39868;53.398;6.564;2023-02-04T20:39:04;7.30;74.00
53962;DHT22;39868;53.398;6.564;2023-02-04T20:41:35;7.30;74.00
53962;DHT22;39868;53.398;6.564;2023-02-04T20:44:35;7.30;74.00
53962;DHT22;39868;53.398;6.564;2023-02-04T20:47:15;7.20;74.60
53962;DHT22;39868;53.398;6.564;2023-02-04T20:49:52;7.20;74.10
53962;DHT22;39868;53.398;6.564;2023-02-04T20:55:28;7.20;74.20
53962;DHT22;39868;53.398;6.564;2023-02-04T20:58:09;7.20;74.30
53962;DHT22;39868;53.398;6.564;2023-02-04T21:00:39;7.20;74.30
53962;DHT22;39868;53.398;6.564;2023-02-04T21:05:43;7.20;74.30
53962;DHT22;39868;53.398;6.564;2023-02-04T21:10:47;7.20;74.50
53962;DHT22;39868;53.398;6.564;2023-02-04T21:13:14;7.10;74.40
53962;DHT22;39868;53.398;6.564;2023-02-04T21:15:42;7.10;74.40
53962;DHT22;39868;53.398;6.564;2023-02-04T21:18:09;7.10;74.50
53962;DHT22;39868;53.398;6.564;2023-02-04T21:20:36;7.10;74.50
53962;DHT22;39868;53.398;6.564;2023-02-04T21:23:04;7.10;74.50
53962;DHT22;39868;53.398;6.564;2023-02-04T21:25:31;7.10;74.50
53962;DHT22;39868;53.398;6.564;2023-02-04T21:27:59;7.10;74.50
53962;DHT22;39868;53.398;6.564;2023-02-04T21:30:26;7.10;74.60
53962;DHT22;39868;53.398;6.564;2023-02-04T21:32:57;7.00;74.60
53962;DHT22;39868;53.398;6.564;2023-02-04T21:35:25;7.10;74.60
53962;DHT22;39868;53.398;6.564;2023-02-04T21:37:53;7.00;74.60
53962;DHT22;39868;53.398;6.564;2023-02-04T21:40:21;7.00;74.60
53962;DHT22;39868;53.398;6.564;2023-02-04T21:42:49;7.00;74.60
53962;DHT22;39868;53.398;6.564;2023-02-04T21:45:17;7.00;74.70
53962;DHT22;39868;53.398;6.564;2023-02-04T21:47:45;7.00;74.80
53962;DHT22;39868;53.398;6.564;2023-02-04T21:50:14;7.00;74.80
53962;DHT22;39868;53.398;6.564;2023-02-04T21:52:42;7.00;74.80
53962;DHT22;39868;53.398;6.564;2023-02-04T21:55:11;7.00;74.90
53962;DHT22;39868;53.398;6.564;2023-02-04T21:57:39;7.00;74.90
53962;DHT22;39868;53.398;6.564;2023-02-04T22:00:08;7.00;74.90
53962;DHT22;39868;53.398;6.564;2023-02-04T22:02:35;7.00;75.00
53962;DHT22;39868;53.398;6.564;2023-02-04T22:05:04;7.00;74.90
53962;DHT22;39868;53.398;6.564;2023-02-04T22:07:34;7.00;74.90
53962;DHT22;39868;53.398;6.564;2023-02-04T22:10:04;7.00;75.00
53962;DHT22;39868;53.398;6.564;2023-02-04T22:12:32;7.00;75.10
53962;DHT22;39868;53.398;6.564;2023-02-04T22:14:59;7.00;75.10
53962;DHT22;39868;53.398;6.564;2023-02-04T22:17:29;7.00;75.20
53962;DHT22;39868;53.398;6.564;2023-02-04T22:19:57;7.00;75.30
53962;DHT22;39868;53.398;6.564;2023-02-04T22:22:25;7.00;75.30
53962;DHT22;39868;53.398;6.564;2023-02-04T22:24:52;7.00;75.30
53962;DHT22;39868;53.398;6.564;2023-02-04T22:27:20;7.00;75.30
53962;DHT22;39868;53.398;6.564;2023-02-04T22:29:47;7.10;75.50
53962;DHT22;39868;53.398;6.564;2023-02-04T22:32:14;7.10;75.50
53962;DHT22;39868;53.398;6.564;2023-02-04T22:34:42;7.10;75.50
53962;DHT22;39868;53.398;6.564;2023-02-04T22:37:09;7.10;75.60
53962;DHT22;39868;53.398;6.564;2023-02-04T22:39:36;7.10;75.60
53962;DHT22;39868;53.398;6.564;2023-02-04T22:42:04;7.20;75.60
53962;DHT22;39868;53.398;6.564;2023-02-04T22:44:32;7.20;75.60
53962;DHT22;39868;53.398;6.564;2023-02-04T22:46:59;7.20;75.60
53962;DHT22;39868;53.398;6.564;2023-02-04T22:49:27;7.20;75.60
53962;DHT22;39868;53.398;6.564;2023-02-04T22:51:55;7.20;75.60
53962;DHT22;39868;53.398;6.564;2023-02-04T22:54:22;7.30;75.70
53962;DHT22;39868;53.398;6.564;2023-02-04T22:56:49;7.30;75.70
53962;DHT22;39868;53.398;6.564;2023-02-04T22:59:17;7.30;75.60
53962;DHT22;39868;53.398;6.564;2023-02-04T23:01:44;7.30;75.60
53962;DHT22;39868;53.398;6.564;2023-02-04T23:04:11;7.30;75.60
53962;DHT22;39868;53.398;6.564;2023-02-04T23:06:39;7.30;75.60
53962;DHT22;39868;53.398;6.564;2023-02-04T23:09:06;7.30;75.60
53962;DHT22;39868;53.398;6.564;2023-02-04T23:11:34;7.30;75.60
53962;DHT22;39868;53.398;6.564;2023-02-04T23:14:01;7.30;75.60
53962;DHT22;39868;53.398;6.564;2023-02-04T23:16:28;7.30;75.60
53962;DHT22;39868;53.398;6.564;2023-02-04T23:18:56;7.30;75.60
53962;DHT22;39868;53.398;6.564;2023-02-04T23:21:24;7.30;75.60
53962;DHT22;39868;53.398;6.564;2023-02-04T23:23:52;7.30;75.60
53962;DHT22;39868;53.398;6.564;2023-02-04T23:26:20;7.30;75.70
53962;DHT22;39868;53.398;6.564;2023-02-04T23:28:47;7.40;75.70
53962;DHT22;39868;53.398;6.564;2023-02-04T23:31:15;7.40;75.70
53962;DHT22;39868;53.398;6.564;2023-02-04T23:33:42;7.40;75.70
53962;DHT22;39868;53.398;6.564;2023-02-04T23:36:10;7.40;75.70
53962;DHT22;39868;53.398;6.564;2023-02-04T23:38:37;7.40;75.70
53962;DHT22;39868;53.398;6.564;2023-02-04T23:41:04;7.40;75.70
53962;DHT22;39868;53.398;6.564;2023-02-04T23:43:32;7.40;75.70
53962;DHT22;39868;53.398;6.564;2023-02-04T23:45:59;7.40;75.80
53962;DHT22;39868;53.398;6.564;2023-02-04T23:48:26;7.40;75.70
53962;DHT22;39868;53.398;6.564;2023-02-04T23:50:54;7.40;75.70
53962;DHT22;39868;53.398;6.564;2023-02-04T23:53:24;7.40;75.80
53962;DHT22;39868;53.398;6.564;2023-02-04T23:55:51;7.50;75.80
53962;DHT22;39868;53.398;6.564;2023-02-04T23:58:18;7.40;75.80
